createdAt,value
2022-09-05T00:01:07.058Z,78.90
2022-09-05T00:04:24.731Z,78.50
2022-09-05T00:07:57.961Z,79.20
2022-09-05T00:10:36.184Z,78.80
2022-09-05T00:13:10.693Z,78.50
2022-09-05T00:15:44.491Z,78.50
2022-09-05T00:20:11.945Z,78.40
2022-09-05T00:24:29.592Z,78.50
2022-09-05T00:25:06.838Z,78.70
2022-09-05T00:27:39.488Z,79.40
2022-09-05T00:31:05.441Z,80.30
2022-09-05T00:33:03.101Z,79.80
2022-09-05T00:36:26.144Z,79.50
2022-09-05T00:39:00.003Z,79.30
2022-09-05T00:41:27.731Z,79.20
2022-09-05T00:43:57.138Z,79.60
2022-09-05T00:46:32.051Z,80.10
2022-09-05T00:49:20.561Z,80.50
2022-09-05T00:52:00.454Z,80.10
2022-09-05T00:54:52.060Z,79.20
2022-09-05T00:57:50.249Z,79.60
2022-09-05T01:00:25.570Z,79.80
2022-09-05T01:03:23.211Z,79.90
2022-09-05T01:05:49.878Z,80.40
2022-09-05T01:08:43.909Z,80.70
2022-09-05T01:11:21.975Z,81.00
2022-09-05T01:14:23.964Z,80.70
2022-09-05T01:17:21.848Z,80.30
2022-09-05T01:20:28.227Z,80.10
2022-09-05T01:23:21.920Z,80.10
2022-09-05T01:25:54.922Z,80.60
2022-09-05T01:29:18.285Z,80.90
2022-09-05T01:31:36.984Z,80.90
2022-09-05T01:34:21.691Z,81.20
2022-09-05T01:37:08.128Z,81.60
2022-09-05T01:40:16.929Z,81.20
2022-09-05T01:43:05.940Z,80.70
2022-09-05T01:45:52.202Z,81.10
2022-09-05T01:48:30.199Z,80.70
2022-09-05T01:51:29.055Z,80.40
2022-09-05T01:54:25.415Z,80.30
2022-09-05T01:57:20.480Z,81.30
2022-09-05T02:00:05.209Z,81.40
2022-09-05T02:02:56.712Z,81.10
2022-09-05T02:06:05.058Z,80.90
2022-09-05T02:08:43.696Z,80.80
2022-09-05T02:11:12.483Z,81.40
2022-09-05T02:14:02.988Z,81.80
2022-09-05T02:16:45.852Z,82.10
2022-09-05T02:19:24.498Z,82.30
2022-09-05T02:22:06.504Z,81.00
2022-09-05T02:24:33.181Z,81.70
2022-09-05T02:27:31.772Z,81.00
2022-09-05T02:30:20.469Z,81.10
2022-09-05T02:33:26.950Z,81.30
2022-09-05T02:36:17.967Z,81.60
2022-09-05T02:42:09.392Z,80.70
2022-09-05T02:45:16.412Z,80.40
2022-09-05T02:45:17.949Z,80.50
2022-09-05T02:47:54.830Z,81.20
2022-09-05T02:57:23.740Z,81.70
2022-09-05T02:57:29.587Z,82.70
2022-09-05T02:57:34.407Z,82.60
2022-09-05T02:59:36.686Z,82.90
2022-09-05T03:02:31.550Z,83.30
2022-09-05T03:05:20.426Z,83.60
2022-09-05T03:08:05.730Z,83.60
2022-09-05T03:10:54.128Z,84.50
2022-09-05T03:13:48.982Z,84.60
2022-09-05T03:16:58.471Z,83.90
2022-09-05T03:19:46.973Z,83.40
2022-09-05T03:22:36.749Z,83.20
2022-09-05T03:25:24.680Z,83.20
2022-09-05T03:28:29.009Z,82.80
2022-09-05T03:31:22.375Z,82.70
2022-09-05T03:34:01.826Z,82.90
2022-09-05T03:36:46.179Z,83.50
2022-09-05T03:39:58.628Z,83.20
2022-09-05T03:43:04.113Z,82.70
2022-09-05T03:45:36.477Z,82.60
2022-09-05T03:48:28.850Z,82.70
2022-09-05T03:57:06.538Z,82.30
2022-09-05T03:57:12.690Z,82.20
2022-09-05T03:58:00.729Z,82.50
2022-09-05T04:01:39.887Z,83.20
2022-09-05T04:08:07.407Z,83.20
2022-09-05T04:08:19.743Z,83.00
2022-09-05T04:09:52.222Z,83.00
2022-09-05T04:12:29.976Z,82.60
2022-09-05T04:15:28.170Z,82.40
2022-09-05T04:18:03.758Z,82.20
2022-09-05T04:20:40.300Z,82.00
2022-09-05T04:23:19.142Z,82.30
2022-09-05T04:26:11.898Z,82.80
2022-09-05T04:29:14.914Z,82.70
2022-09-05T04:32:18.776Z,82.10
2022-09-05T04:35:23.587Z,83.00
2022-09-05T04:38:08.732Z,83.20
2022-09-05T04:40:41.558Z,82.50
2022-09-05T04:43:20.076Z,82.70
2022-09-05T04:45:55.687Z,82.50
2022-09-05T04:48:28.709Z,82.80
2022-09-05T04:51:07.657Z,82.50
2022-09-05T04:54:04.504Z,82.80
2022-09-05T04:56:37.509Z,83.30
2022-09-05T05:04:33.775Z,83.10
2022-09-05T05:06:09.418Z,83.80
2022-09-05T05:06:11.234Z,84.10
2022-09-05T05:09:15.454Z,83.90
2022-09-05T05:18:00.615Z,84.60
2022-09-05T05:18:07.955Z,84.50
2022-09-05T05:18:13.273Z,83.70
2022-09-05T05:20:51.894Z,83.80
2022-09-05T05:23:28.986Z,84.20
2022-09-05T05:25:59.817Z,84.60
2022-09-05T05:29:07.809Z,84.50
2022-09-05T05:31:38.730Z,84.20
2022-09-05T05:34:24.663Z,83.80
2022-09-05T05:37:00.659Z,84.00
2022-09-05T05:39:33.025Z,83.70
2022-09-05T05:42:20.247Z,84.50
2022-09-05T05:44:58.759Z,83.90
2022-09-05T05:47:43.545Z,84.30
2022-09-05T05:50:19.560Z,84.50
2022-09-05T05:53:28.962Z,84.70
2022-09-05T05:56:21.543Z,84.50
2022-09-05T05:58:54.341Z,84.60
2022-09-05T06:02:02.472Z,84.90
2022-09-05T06:04:47.190Z,84.80
2022-09-05T06:10:19.739Z,84.50
2022-09-05T06:14:52.792Z,84.90
2022-09-05T06:15:09.141Z,84.90
2022-09-05T06:16:49.772Z,84.90
2022-09-05T06:20:53.049Z,84.70
2022-09-05T06:22:52.387Z,84.60
2022-09-05T06:25:40.892Z,84.20
2022-09-05T06:28:36.944Z,84.20
2022-09-05T06:31:38.611Z,83.90
2022-09-05T06:34:33.455Z,83.50
2022-09-05T06:37:40.940Z,83.20
2022-09-05T06:40:16.996Z,83.20
2022-09-05T06:43:08.179Z,83.20
2022-09-05T06:45:43.897Z,83.20
2022-09-05T06:48:45.903Z,83.10
2022-09-05T06:51:31.492Z,82.50
2022-09-05T06:54:32.222Z,82.50
2022-09-05T06:57:20.692Z,82.60
2022-09-05T07:00:21.823Z,82.40
2022-09-05T07:03:17.009Z,82.20
2022-09-05T07:06:19.698Z,81.60
2022-09-05T07:09:05.617Z,81.20
2022-09-05T07:11:45.450Z,81.20
2022-09-05T07:14:21.451Z,81.10
2022-09-05T07:16:58.065Z,80.70
2022-09-05T07:19:50.806Z,80.60
2022-09-05T07:22:47.511Z,80.20
2022-09-05T07:25:11.209Z,79.80
2022-09-05T07:28:25.861Z,79.40
2022-09-05T07:30:53.746Z,79.00
2022-09-05T07:33:22.772Z,78.40
2022-09-05T07:35:51.359Z,77.90
2022-09-05T07:38:26.478Z,77.30
2022-09-05T07:41:25.056Z,76.80
2022-09-05T07:44:02.444Z,76.50
2022-09-05T07:46:33.650Z,76.10
2022-09-05T07:49:27.993Z,75.40
2022-09-05T07:56:49.493Z,75.10
2022-09-05T07:56:52.456Z,75.00
2022-09-05T07:57:51.666Z,74.20
2022-09-05T08:00:27.022Z,74.20
2022-09-05T08:02:59.153Z,74.10
2022-09-05T08:05:34.867Z,73.20
2022-09-05T08:08:07.852Z,72.60
2022-09-05T08:11:22.691Z,72.50
2022-09-05T08:13:42.582Z,71.90
2022-09-05T08:16:17.287Z,72.00
2022-09-05T08:19:05.121Z,71.90
2022-09-05T08:21:43.660Z,70.10
2022-09-05T08:24:21.080Z,70.20
2022-09-05T08:27:16.630Z,70.10
2022-09-05T08:30:24.567Z,68.50
2022-09-05T08:33:10.661Z,68.70
2022-09-05T08:36:00.729Z,68.60
2022-09-05T08:38:35.960Z,68.90
2022-09-05T08:41:13.997Z,68.80
2022-09-05T08:46:41.898Z,68.10
2022-09-05T08:47:03.304Z,68.30
2022-09-05T08:50:16.265Z,67.70
2022-09-05T08:52:58.615Z,66.60
2022-09-05T08:55:54.807Z,66.50
2022-09-05T08:59:28.991Z,66.40
2022-09-05T09:02:47.842Z,66.20
2022-09-05T09:05:14.169Z,65.90
2022-09-05T09:07:52.515Z,65.60
2022-09-05T09:10:43.397Z,65.80
2022-09-05T09:13:34.419Z,65.80
2022-09-05T09:16:10.871Z,66.10
2022-09-05T09:18:47.490Z,65.40
2022-09-05T09:21:32.845Z,64.90
2022-09-05T09:24:10.329Z,65.00
2022-09-05T09:26:54.312Z,64.60
2022-09-05T09:29:23.802Z,65.00
2022-09-05T09:31:56.365Z,63.90
2022-09-05T09:34:47.513Z,64.10
2022-09-05T09:37:50.041Z,64.30
2022-09-05T09:40:44.921Z,63.40
2022-09-05T09:43:53.219Z,63.50
2022-09-05T09:46:39.006Z,62.90
2022-09-05T09:49:22.498Z,62.50
2022-09-05T09:52:27.256Z,62.30
2022-09-05T09:55:31.862Z,61.50
2022-09-05T09:58:23.521Z,61.60
2022-09-05T10:00:56.208Z,61.80
2022-09-05T10:09:07.912Z,62.80
2022-09-05T10:10:51.889Z,61.10
2022-09-05T10:10:56.800Z,61.60
2022-09-05T10:13:28.880Z,60.90
2022-09-05T10:16:16.849Z,59.90
2022-09-05T10:19:07.037Z,59.50
2022-09-05T10:25:19.207Z,57.70
2022-09-05T10:28:25.332Z,57.20
2022-09-05T10:33:11.869Z,56.70
2022-09-05T10:35:13.148Z,54.30
2022-09-05T10:37:12.070Z,52.20
2022-09-05T10:39:47.024Z,51.10
2022-09-05T10:42:25.327Z,49.90
2022-09-05T10:45:05.020Z,50.40
2022-09-05T10:47:38.674Z,50.30
2022-09-05T10:50:08.157Z,51.20
2022-09-05T10:52:39.835Z,51.80
2022-09-05T10:55:30.363Z,50.40
2022-09-05T10:58:39.049Z,49.80
2022-09-05T11:02:30.417Z,48.60
2022-09-05T11:05:16.335Z,47.70
2022-09-05T11:07:52.488Z,48.90
2022-09-05T11:10:24.498Z,48.80
2022-09-05T11:13:34.913Z,50.00
2022-09-05T11:16:23.053Z,50.70
2022-09-05T11:19:25.255Z,51.30
2022-09-05T11:22:05.228Z,52.30
2022-09-05T11:24:57.554Z,53.10
2022-09-05T11:27:40.706Z,54.00
2022-09-05T11:30:30.523Z,54.20
2022-09-05T11:39:49.192Z,54.40
2022-09-05T11:39:49.192Z,54.90
2022-09-05T11:40:05.030Z,55.00
2022-09-05T11:42:50.252Z,55.00
2022-09-05T11:45:31.960Z,55.60
2022-09-05T11:48:30.016Z,55.20
2022-09-05T11:51:34.175Z,55.90
2022-09-05T11:54:32.637Z,55.90
2022-09-05T11:57:33.619Z,55.40
2022-09-05T12:00:33.000Z,55.40
2022-09-05T12:03:59.874Z,55.60
2022-09-05T12:09:35.758Z,55.00
2022-09-05T12:15:34.578Z,55.00
2022-09-05T12:18:18.842Z,55.40
2022-09-05T12:20:48.964Z,55.20
2022-09-05T12:23:53.606Z,55.70
2022-09-05T12:27:38.394Z,55.20
2022-09-05T12:29:36.561Z,54.20
2022-09-05T12:33:58.227Z,54.50
2022-09-05T12:36:03.745Z,54.40
2022-09-05T12:41:40.967Z,55.50
2022-09-05T12:41:41.112Z,54.90
2022-09-05T12:41:42.466Z,54.60
2022-09-05T12:41:42.656Z,54.90
2022-09-05T12:44:41.031Z,54.00
2022-09-05T12:47:16.663Z,54.00
2022-09-05T12:50:18.034Z,54.40
2022-09-05T12:52:49.526Z,54.40
2022-09-05T12:55:37.626Z,54.30
2022-09-05T13:02:55.691Z,54.30
2022-09-05T13:03:07.413Z,53.40
2022-09-05T13:04:18.548Z,53.30
2022-09-05T13:06:54.894Z,51.60
2022-09-05T13:09:32.289Z,51.40
2022-09-05T13:14:54.227Z,51.80
2022-09-05T13:15:23.738Z,51.80
2022-09-05T13:18:08.500Z,52.50
2022-09-05T13:20:45.607Z,52.40
2022-09-05T13:23:24.425Z,52.00
2022-09-05T13:26:20.058Z,51.80
2022-09-05T13:29:09.992Z,50.90
2022-09-05T13:38:04.023Z,50.00
2022-09-05T13:38:04.874Z,49.00
2022-09-05T13:38:19.331Z,49.10
2022-09-05T13:40:40.556Z,45.70
2022-09-05T13:43:14.970Z,46.50
2022-09-05T13:46:03.478Z,47.80
2022-09-05T13:51:47.829Z,48.50
2022-09-05T13:54:39.813Z,48.70
2022-09-05T13:57:32.540Z,48.30
2022-09-05T14:00:28.188Z,47.30
2022-09-05T14:03:39.085Z,47.90
2022-09-05T14:06:48.640Z,48.40
2022-09-05T14:09:38.289Z,48.50
2022-09-05T14:12:08.373Z,48.60
2022-09-05T14:20:27.898Z,49.50
2022-09-05T14:23:15.636Z,49.20
2022-09-05T14:25:57.045Z,48.90
2022-09-05T14:28:36.209Z,48.80
2022-09-05T14:36:00.487Z,48.80
2022-09-05T14:37:50.299Z,48.50
2022-09-05T14:38:05.642Z,48.00
2022-09-05T14:41:11.149Z,48.10
2022-09-05T14:44:25.509Z,47.80
2022-09-05T14:47:10.715Z,46.80
2022-09-05T14:50:00.930Z,46.80
2022-09-05T14:52:35.454Z,46.70
2022-09-05T15:02:45.189Z,46.60
2022-09-05T15:02:54.896Z,46.80
2022-09-05T15:06:37.276Z,47.00
2022-09-05T15:11:25.679Z,46.90
2022-09-05T15:12:23.312Z,47.40
2022-09-05T15:14:45.347Z,46.80
2022-09-05T15:17:21.720Z,46.30
2022-09-05T15:20:06.588Z,45.20
2022-09-05T15:22:37.041Z,45.70
2022-09-05T15:25:24.626Z,45.60
2022-09-05T15:27:52.620Z,45.60
2022-09-05T15:30:35.674Z,45.60
2022-09-05T15:33:25.866Z,45.80
2022-09-05T15:35:53.340Z,45.30
2022-09-05T15:38:21.828Z,43.70
2022-09-05T15:41:09.271Z,44.40
2022-09-05T15:43:53.635Z,44.60
2022-09-05T15:46:29.470Z,43.50
2022-09-05T15:49:01.073Z,43.70
2022-09-05T15:51:48.689Z,43.70
2022-09-05T15:54:38.498Z,45.40
2022-09-05T15:57:08.949Z,44.70
2022-09-05T15:59:48.797Z,43.80
2022-09-05T16:02:20.318Z,43.00
2022-09-05T16:10:28.190Z,44.00
2022-09-05T16:10:47.005Z,45.00
2022-09-05T16:11:09.991Z,45.10
2022-09-05T16:13:31.606Z,44.90
2022-09-05T16:23:14.593Z,45.20
2022-09-05T16:23:14.933Z,45.20
2022-09-05T16:23:32.498Z,44.70
2022-09-05T16:24:59.674Z,43.80
2022-09-05T16:27:46.865Z,44.00
2022-09-05T16:30:24.465Z,44.40
2022-09-05T16:32:56.677Z,44.40
2022-09-05T16:35:26.175Z,44.70
2022-09-05T16:38:02.198Z,45.00
2022-09-05T16:40:34.199Z,45.90
2022-09-05T16:43:16.745Z,45.80
2022-09-05T16:45:52.686Z,45.50
2022-09-05T16:48:35.237Z,45.60
2022-09-05T16:51:17.218Z,45.80
2022-09-05T16:53:59.549Z,45.90
2022-09-05T16:56:47.504Z,46.30
2022-09-05T16:59:21.618Z,46.80
2022-09-05T17:02:11.320Z,47.20
2022-09-05T17:05:07.709Z,47.50
2022-09-05T17:08:12.050Z,47.40
2022-09-05T17:10:57.263Z,47.50
2022-09-05T17:13:44.987Z,47.70
2022-09-05T17:16:27.522Z,48.00
2022-09-05T17:18:59.296Z,48.00
2022-09-05T17:24:09.693Z,48.20
2022-09-05T17:29:18.696Z,48.70
2022-09-05T17:29:33.771Z,48.80
2022-09-05T17:32:57.662Z,49.00
2022-09-05T17:35:47.513Z,49.00
2022-09-05T17:38:42.306Z,49.40
2022-09-05T17:41:43.051Z,49.50
2022-09-05T17:44:29.274Z,49.60
2022-09-05T17:47:14.621Z,49.80
2022-09-05T17:49:45.196Z,50.20
2022-09-05T17:52:17.359Z,50.30
2022-09-05T17:54:52.180Z,50.60
2022-09-05T17:57:27.630Z,51.20
2022-09-05T17:59:55.637Z,51.70
2022-09-05T18:02:23.888Z,52.20
2022-09-05T18:04:52.597Z,51.80
2022-09-05T18:07:31.175Z,51.70
2022-09-05T18:10:12.484Z,52.30
2022-09-05T18:13:31.772Z,53.00
2022-09-05T18:15:27.621Z,53.60
2022-09-05T18:17:58.708Z,54.10
2022-09-05T18:20:40.240Z,54.50
2022-09-05T18:23:37.202Z,54.90
2022-09-05T18:26:14.093Z,55.10
2022-09-05T18:29:05.808Z,55.60
2022-09-05T18:31:41.839Z,56.00
2022-09-05T18:34:18.949Z,56.20
2022-09-05T18:36:50.394Z,56.50
2022-09-05T18:39:25.972Z,56.50
2022-09-05T18:42:04.196Z,56.70
2022-09-05T18:44:59.368Z,56.60
2022-09-05T18:48:04.912Z,56.60
2022-09-05T18:50:41.792Z,56.50
2022-09-05T18:53:12.850Z,56.60
2022-09-05T18:56:13.519Z,56.60
2022-09-05T18:58:51.792Z,56.60
2022-09-05T19:01:24.860Z,56.70
2022-09-05T19:03:59.821Z,56.90
2022-09-05T19:06:35.002Z,57.00
2022-09-05T19:09:14.321Z,57.20
2022-09-05T19:12:15.832Z,57.50
2022-09-05T19:15:08.674Z,57.70
2022-09-05T19:17:38.318Z,57.70
2022-09-05T19:20:31.551Z,58.10
2022-09-05T19:23:09.678Z,58.20
2022-09-05T19:25:44.553Z,58.60
2022-09-05T19:36:57.235Z,59.20
2022-09-05T19:36:57.862Z,59.30
2022-09-05T19:37:22.201Z,59.60
2022-09-05T19:37:29.279Z,59.00
2022-09-05T19:43:19.896Z,59.00
2022-09-05T19:47:28.584Z,58.70
2022-09-05T19:47:41.361Z,59.00
2022-09-05T19:48:34.892Z,59.50
2022-09-05T19:51:16.934Z,59.30
2022-09-05T19:53:48.887Z,59.50
2022-09-05T19:56:33.477Z,59.70
2022-09-05T19:59:00.228Z,59.80
2022-09-05T20:01:27.313Z,59.30
2022-09-05T20:03:54.909Z,59.10
2022-09-05T20:06:29.982Z,59.70
2022-09-05T20:09:19.071Z,59.50
2022-09-05T20:11:54.077Z,59.90
2022-09-05T20:14:24.377Z,59.90
2022-09-05T20:16:53.880Z,60.20
2022-09-05T20:19:33.032Z,60.10
2022-09-05T20:22:40.404Z,59.80
2022-09-05T20:24:56.535Z,59.40
2022-09-05T20:27:29.577Z,60.10
2022-09-05T20:29:56.261Z,60.00
2022-09-05T20:32:39.327Z,60.80
2022-09-05T20:38:53.301Z,60.80
2022-09-05T20:43:16.108Z,60.90
2022-09-05T20:43:30.599Z,61.00
2022-09-05T20:44:11.626Z,61.40
2022-09-05T20:50:41.338Z,61.50
2022-09-05T20:54:15.845Z,61.40
2022-09-05T20:54:18.047Z,61.80
2022-09-05T20:55:41.414Z,61.50
2022-09-05T20:58:10.378Z,61.80
2022-09-05T21:01:20.466Z,61.70
2022-09-05T21:03:36.450Z,61.80
2022-09-05T21:06:25.143Z,61.90
2022-09-05T21:08:55.745Z,61.90
2022-09-05T21:11:32.609Z,62.30
2022-09-05T21:14:03.361Z,62.60
2022-09-05T21:16:35.512Z,63.30
2022-09-05T21:19:02.616Z,63.00
2022-09-05T21:21:32.066Z,62.90
2022-09-05T21:24:23.115Z,63.70
2022-09-05T21:26:50.238Z,63.20
2022-09-05T21:29:27.523Z,63.40
2022-09-05T21:32:01.726Z,63.40
2022-09-05T21:34:35.191Z,63.10
2022-09-05T21:37:07.663Z,63.10
2022-09-05T21:39:58.792Z,63.40
2022-09-05T21:45:50.548Z,63.30
2022-09-05T21:47:46.458Z,63.90
2022-09-05T21:48:15.414Z,64.10
2022-09-05T21:50:51.513Z,63.90
2022-09-05T21:55:04.324Z,64.10
2022-09-05T21:59:26.027Z,64.20
2022-09-05T21:59:46.447Z,64.70
2022-09-05T22:02:13.439Z,65.20
2022-09-05T22:04:41.457Z,65.70
2022-09-05T22:07:14.200Z,65.00
2022-09-05T22:09:40.912Z,65.10
2022-09-05T22:12:17.435Z,65.60
2022-09-05T22:14:54.507Z,66.10
2022-09-05T22:17:22.268Z,66.20
2022-09-05T22:19:50.048Z,65.80
2022-09-05T22:22:17.705Z,65.70
2022-09-05T22:24:49.772Z,65.90
2022-09-05T22:27:19.784Z,65.50
2022-09-05T22:29:50.323Z,65.60
2022-09-05T22:32:17.996Z,66.10
2022-09-05T22:35:27.490Z,66.70
2022-09-05T22:37:55.314Z,66.60
2022-09-05T22:40:27.109Z,66.20
2022-09-05T22:42:58.654Z,66.20
2022-09-05T22:45:25.916Z,66.20
2022-09-05T22:47:53.154Z,66.00
2022-09-05T22:50:19.897Z,66.40
2022-09-05T22:52:46.607Z,66.80
2022-09-05T22:55:13.359Z,66.60
2022-09-05T22:57:40.672Z,66.50
2022-09-05T23:00:08.335Z,66.40
2022-09-05T23:02:35.162Z,66.40
2022-09-05T23:05:02.786Z,66.60
2022-09-05T23:07:29.604Z,66.50
2022-09-05T23:09:56.258Z,67.50
2022-09-05T23:12:22.942Z,67.10
2022-09-05T23:14:49.667Z,66.60
2022-09-05T23:17:16.633Z,66.90
2022-09-05T23:19:43.291Z,67.50
2022-09-05T23:22:09.928Z,67.20
2022-09-05T23:24:36.582Z,67.40
2022-09-05T23:27:03.357Z,67.60
2022-09-05T23:29:29.997Z,67.80
2022-09-05T23:31:56.821Z,67.60
2022-09-05T23:34:23.645Z,67.90
2022-09-05T23:36:50.289Z,67.30
2022-09-05T23:39:16.943Z,67.20
2022-09-05T23:41:43.590Z,66.60
2022-09-05T23:44:10.495Z,67.20
2022-09-05T23:46:37.838Z,67.40
2022-09-05T23:49:04.543Z,67.70
2022-09-05T23:51:31.227Z,67.20
2022-09-05T23:53:57.906Z,67.20
2022-09-05T23:56:24.593Z,67.40
2022-09-05T23:58:51.282Z,67.50
